Weather at Kigali International Airport

Public forecast

Using degrees Celsius for public forecast. Weather courtesy of forecast.io.

Current aviation weather report (METAR) for Kigali International Airport

Report is more than 6 hours old.

2024/06/24 06:30 (retrieved 1 day ago)

HRYR 240630Z 17005KT 9999 FEW023 20/12 Q1025 NOSIG

Closest aviation forecast (TAF) to Kigali International Airport

Forecast is more than 12 hours old.

Closest forecast is Goma International Airport, 57.1 nm (105.7 km) WNW.

2024/06/24 06:39 (retrieved 1 day ago)

TAF FZNA 240500Z 2406/2512 06004KT 5000 BR SCT016 BECMG 2407/2409 18014KT 7000 NSW BECMG 2414/2416 05004KT BECMG 2509/2510 23014KT